Česky Dansk Deutsch English Español Suomi Français Magyar Italiano Nederlands norsk Polski Português svenska Türkçe

 

Het Weer

Lille (Frankrijk)

06:00, 23 augustus 2016 (GMT)

NWNNE
WE
SWSSE
Home            
Lille Cambrai Chievres Munte Koksijde Oostende Airport Saint-Quentin Gent / Industrie-Zone Charleroi / Gosselies Abbeville Le Touquet Melsbroek Bel-Afb Bruxelles National Florennes Antwerpen / Deurne Beauvechain Brasschaat Woensdrecht Goetsenhoven Charleville Beauvais Schaffen Manston, South East

Om een weerknop op uw website of weblog te plaatsen, copieer onderstaande code en plak die in uw pagina. In het eerste vakje staat HTML-code, in het tweede vakje UBB-code.


Add to Google

Details

Wind speed:1 bf, 2 kn, 1.0 m/s, 2.3 miles/h, 3.7 km/h
Wind direction:E, 100°
Visibility:Greater than 10000 m, 10 km, 32800 ft, 6.2 miles
Clouds:CAVOC
Temperature:16°C, 61°F
Dew-point:14°C, 57°F
Atmospheric pressure:1026 hPa, 769.6 mmHg, 30.30 inHg, 1.013 atm
Relative humidity:87.9 %
METAR:LFQQ 230600Z AUTO 10002KT CAVOK 16/14 Q1026 NOSIG

Snelkoppelingen

Actuele weersinformatie van de hele wereld. Voeg locaties toe met het plus (+) symbool. Deze snelkoppelingen kunnen worden toegevoegd aan Google.

Lid van de Technetium groep

website free tracking
StatCounter NetStat W3C Validator

27-10-2020 02:07:29
astro.technetium.be money.technetium.be phote.technetium.be tafeltennistafel.technetium.be www.ligfiets.net